Time;durP1;ratioP1;P1;durP2;ratioP2;P2;SDS_P1;SDS_P2;PMS_P1;PMS_P2;Temp;Humidity;BMP_temperature;BMP_pressure;BME280_temperature;BME280_humidity;BME280_pressure;Samples;Min_cycle;Max_cycle;Signal;HPM_P1;HPM_P2
2023/04/13 00:00:42;;;;;;;206.47;190.53;;;7.10;21.50;;;;;;5013734;28;20474;-71
2023/04/13 00:03:11;;;;;;;341.17;320.53;;;7.10;21.30;;;;;;5013888;28;20446;-71
2023/04/13 00:05:40;;;;;;;117.60;100.63;;;7.10;21.50;;;;;;5013158;28;20558;-71
2023/04/13 00:08:06;;;;;;;217.53;200.57;;;7.10;21.50;;;;;;5014774;28;20846;-71
2023/04/13 00:10:35;;;;;;;89.87;79.90;;;7.10;21.50;;;;;;5012926;28;20508;-70
2023/04/13 00:13:01;;;;;;;305.17;283.07;;;7.20;21.50;;;;;;5013846;28;20438;-70
2023/04/13 00:15:27;;;;;;;339.00;314.50;;;7.20;21.50;;;;;;5012794;28;20783;-70
2023/04/13 00:17:52;;;;;;;183.30;169.33;;;7.10;21.50;;;;;;5014020;28;20501;-71
2023/04/13 00:20:18;;;;;;;297.73;276.63;;;7.10;21.50;;;;;;5013373;28;20211;-70
2023/04/13 00:22:46;;;;;;;172.40;158.87;;;7.20;21.50;;;;;;5014003;28;20567;-69
2023/04/13 00:25:13;;;;;;;165.87;152.13;;;7.20;21.60;;;;;;5013533;28;20419;-71
2023/04/13 00:27:39;;;;;;;255.37;239.23;;;7.20;21.50;;;;;;5013009;28;20419;-71
2023/04/13 00:30:07;;;;;;;278.60;262.87;;;7.10;21.50;;;;;;5013346;28;20499;-70
2023/04/13 00:32:32;;;;;;;110.80;99.63;;;7.10;21.50;;;;;;5012890;28;20822;-70
2023/04/13 00:34:58;;;;;;;115.63;104.40;;;7.10;20.90;;;;;;5012609;28;20427;-71
2023/04/13 00:37:23;;;;;;;269.93;252.10;;;7.00;20.50;;;;;;5012389;28;20184;-71
2023/04/13 00:39:50;;;;;;;309.67;290.07;;;7.00;19.40;;;;;;5012363;28;20533;-72
2023/04/13 00:42:18;;;;;;;346.83;322.30;;;6.90;19.60;;;;;;5011775;28;20192;-71
2023/04/13 00:44:44;;;;;;;217.60;200.60;;;6.90;19.90;;;;;;5012473;28;20789;-71
2023/04/13 00:47:11;;;;;;;436.90;406.80;;;6.90;19.20;;;;;;5013726;28;20419;-70
2023/04/13 00:49:36;;;;;;;260.10;243.97;;;7.00;19.30;;;;;;5012350;28;20168;-71
2023/04/13 00:52:02;;;;;;;291.23;270.97;;;7.10;18.50;;;;;;5014012;28;20955;-71
2023/04/13 00:54:28;;;;;;;255.13;234.23;;;7.10;17.30;;;;;;5015604;28;20625;-71
2023/04/13 00:56:58;;;;;;;342.23;318.23;;;7.20;17.50;;;;;;5012219;28;20434;-71
2023/04/13 00:59:27;;;;;;;363.43;337.30;;;7.20;17.40;;;;;;5012016;28;20442;-70
2023/04/13 01:01:55;;;;;;;243.87;226.67;;;7.20;17.30;;;;;;5012539;28;20466;-71
2023/04/13 01:04:24;;;;;;;272.60;253.03;;;7.30;17.40;;;;;;5013387;28;20430;-71
2023/04/13 01:07:03;;;;;;;487.07;448.97;;;7.30;16.80;;;;;;5012218;28;20410;-70
2023/04/13 01:09:44;;;;;;;458.23;423.27;;;7.40;15.40;;;;;;5011989;28;20494;-71
2023/04/13 01:12:46;;;;;;;372.57;347.03;;;7.40;15.90;;;;;;5011366;28;20438;-71
2023/04/13 01:15:13;;;;;;;152.23;138.93;;;7.50;15.90;;;;;;5013548;28;20406;-71
2023/04/13 01:17:43;;;;;;;410.93;384.27;;;7.40;17.20;;;;;;5011947;28;20438;-71
2023/04/13 01:20:14;;;;;;;353.53;331.70;;;7.30;17.40;;;;;;5012557;28;20501;-71
2023/04/13 01:22:50;;;;;;;437.10;407.60;;;7.20;17.30;;;;;;5012244;28;20422;-70
2023/04/13 01:25:35;;;;;;;107.00;96.13;;;7.20;17.90;;;;;;5012162;28;20406;-70
2023/04/13 01:28:07;;;;;;;353.77;333.00;;;7.10;18.10;;;;;;5012739;28;20415;-71
2023/04/13 01:30:35;;;;;;;152.63;140.37;;;7.10;18.50;;;;;;5012446;28;20407;-70
2023/04/13 01:33:02;;;;;;;296.87;279.03;;;7.10;18.90;;;;;;5011999;28;20426;-70
2023/04/13 01:35:29;;;;;;;309.60;288.97;;;7.00;18.80;;;;;;5012352;28;21027;-69
2023/04/13 01:37:56;;;;;;;484.23;452.07;;;6.90;19.00;;;;;;5011907;28;20494;-71
2023/04/13 01:40:23;;;;;;;186.00;172.47;;;6.90;19.40;;;;;;5011087;28;20875;-70
2023/04/13 01:42:49;;;;;;;277.77;259.00;;;6.80;19.80;;;;;;5011170;28;20418;-70
2023/04/13 01:45:26;;;;;;;149.27;135.33;;;6.70;19.50;;;;;;5011686;28;20783;-70
2023/04/13 01:47:55;;;;;;;262.13;242.13;;;6.60;18.80;;;;;;5011432;28;20172;-70
2023/04/13 01:50:27;;;;;;;402.60;375.20;;;6.60;19.20;;;;;;5011167;28;20411;-71
2023/04/13 01:52:56;;;;;;;329.47;306.53;;;6.70;18.80;;;;;;5011119;28;20422;-71
2023/04/13 01:55:23;;;;;;;237.80;220.30;;;6.80;19.20;;;;;;5011435;28;20740;-71
2023/04/13 01:57:53;;;;;;;142.83;130.97;;;6.80;19.70;;;;;;5013394;28;20423;-70
2023/04/13 02:00:19;;;;;;;180.07;164.77;;;6.90;20.20;;;;;;5014389;28;20486;-71
2023/04/13 02:02:44;;;;;;;117.07;106.03;;;6.80;20.10;;;;;;5016203;28;20889;-69
2023/04/13 02:05:10;;;;;;;402.50;377.87;;;6.70;20.60;;;;;;5015107;28;20411;-70
2023/04/13 02:07:38;;;;;;;192.07;176.90;;;6.60;21.20;;;;;;5015250;28;20183;-70
2023/04/13 02:10:05;;;;;;;282.63;261.43;;;6.50;22.20;;;;;;5017917;28;20506;-71
2023/04/13 02:12:33;;;;;;;202.93;187.67;;;6.40;22.60;;;;;;5015202;28;20537;-69
2023/04/13 02:15:00;;;;;;;221.67;206.37;;;6.20;23.60;;;;;;5016255;28;20417;-71
2023/04/13 02:17:28;;;;;;;330.83;308.37;;;6.20;24.60;;;;;;5017668;28;20472;-71
2023/04/13 02:19:55;;;;;;;351.87;328.40;;;6.10;24.40;;;;;;5016903;28;20467;-71
2023/04/13 02:22:21;;;;;;;156.03;143.77;;;6.10;25.00;;;;;;5014519;28;20435;-71
2023/04/13 02:24:47;;;;;;;269.33;251.00;;;6.20;25.00;;;;;;5014605;28;20410;-71
2023/04/13 02:27:12;;;;;;;269.03;248.37;;;6.20;25.00;;;;;;5016072;28;20651;-71
2023/04/13 02:29:38;;;;;;;221.53;205.37;;;6.20;25.00;;;;;;5016351;28;20437;-72
2023/04/13 02:32:04;;;;;;;369.97;344.33;;;6.10;24.70;;;;;;5014199;28;20305;-72
2023/04/13 02:34:29;;;;;;;414.97;387.03;;;6.10;25.00;;;;;;5014484;28;20198;-71
2023/04/13 02:36:55;;;;;;;299.10;279.60;;;6.10;25.00;;;;;;5014355;28;20198;-71
2023/04/13 02:39:20;;;;;;;441.87;410.37;;;6.10;25.00;;;;;;5014644;28;20182;-72
2023/04/13 02:41:47;;;;;;;332.77;311.53;;;6.10;25.60;;;;;;5014424;28;20206;-71
2023/04/13 02:44:13;;;;;;;75.23;50.07;;;6.10;26.00;;;;;;5015751;28;20171;-71
2023/04/13 02:46:39;;;;;;;200.23;186.37;;;6.10;25.80;;;;;;5014197;28;20745;-71
2023/04/13 02:49:04;;;;;;;95.00;84.83;;;6.10;25.90;;;;;;5015081;28;20422;-70
2023/04/13 02:51:31;;;;;;;245.90;229.70;;;6.00;26.20;;;;;;5014314;28;20202;-71
2023/04/13 02:53:56;;;;;;;205.43;191.17;;;5.90;26.00;;;;;;5014217;28;20171;-71
2023/04/13 02:56:24;;;;;;;171.77;158.50;;;5.80;26.20;;;;;;5014949;28;20472;-71
2023/04/13 02:58:50;;;;;;;276.35;255.40;;;5.70;26.30;;;;;;5018273;28;20177;-71
2023/04/13 03:01:16;;;;;;;210.38;194.20;;;5.70;26.10;;;;;;5014372;28;20213;-71
2023/04/13 03:03:41;;;;;;;252.67;232.93;;;5.70;26.30;;;;;;5012450;28;20189;-71
2023/04/13 03:06:07;;;;;;;183.07;169.10;;;5.70;26.10;;;;;;5014026;28;20175;-71
2023/04/13 03:08:33;;;;;;;266.67;249.80;;;5.80;25.50;;;;;;5016703;28;20196;-71
2023/04/13 03:10:59;;;;;;;197.87;184.07;;;5.90;25.90;;;;;;5013061;28;20430;-71
2023/04/13 03:13:25;;;;;;;128.07;116.80;;;6.00;25.50;;;;;;5013666;28;20425;-71
2023/04/13 03:15:51;;;;;;;108.47;97.87;;;6.10;25.00;;;;;;5015422;28;20187;-71
2023/04/13 03:18:17;;;;;;;231.70;216.47;;;6.10;25.00;;;;;;5013555;28;20229;-71
2023/04/13 03:20:43;;;;;;;286.57;266.97;;;6.20;24.70;;;;;;5015320;28;20970;-72
2023/04/13 03:23:09;;;;;;;225.43;211.47;;;6.20;24.50;;;;;;5013571;28;20455;-72
2023/04/13 03:25:35;;;;;;;220.17;204.67;;;6.20;25.00;;;;;;5014804;28;20434;-71
2023/04/13 03:28:00;;;;;;;185.53;171.83;;;6.30;24.30;;;;;;5013556;28;20876;-71
2023/04/13 03:30:26;;;;;;;159.87;147.33;;;6.30;23.50;;;;;;5011979;28;20589;-71
2023/04/13 03:32:51;;;;;;;108.13;97.63;;;6.40;23.10;;;;;;5013564;28;20178;-73
2023/04/13 03:35:17;;;;;;;236.67;217.57;;;6.40;22.60;;;;;;5016025;28;20194;-71
2023/04/13 03:37:43;;;;;;;150.80;138.43;;;6.40;21.70;;;;;;5013567;28;20543;-71
2023/04/13 03:40:09;;;;;;;294.83;274.07;;;6.50;21.90;;;;;;5013242;28;20200;-71
2023/04/13 03:42:36;;;;;;;255.37;237.70;;;6.50;21.00;;;;;;5014209;28;20459;-71
2023/04/13 03:45:02;;;;;;;98.30;87.70;;;6.50;21.10;;;;;;5013328;28;20490;-71
2023/04/13 03:47:27;;;;;;;311.67;289.50;;;6.60;20.50;;;;;;5014653;28;20422;-71
2023/04/13 03:49:53;;;;;;;201.77;186.47;;;6.70;20.50;;;;;;5015062;28;20947;-71
2023/04/13 03:52:18;;;;;;;306.10;284.40;;;6.60;19.90;;;;;;5012989;28;20195;-71
2023/04/13 03:54:44;;;;;;;181.67;166.67;;;6.60;18.00;;;;;;5013095;28;20172;-71
2023/04/13 03:57:10;;;;;;;364.07;340.97;;;6.60;13.70;;;;;;5013971;28;20251;-71
2023/04/13 03:59:35;;;;;;;193.43;177.60;;;6.60;14.60;;;;;;5014983;28;20419;-71
2023/04/13 04:02:04;;;;;;;121.37;110.00;;;6.70;15.70;;;;;;5012737;28;20674;-71
2023/04/13 04:04:29;;;;;;;295.43;275.13;;;6.70;14.80;;;;;;5014552;28;20178;-71
2023/04/13 04:06:56;;;;;;;171.23;158.07;;;6.70;14.30;;;;;;5016012;28;20411;-71
2023/04/13 04:09:22;;;;;;;196.60;179.80;;;6.70;12.70;;;;;;5014117;28;20544;-71
2023/04/13 04:11:47;;;;;;;300.73;278.43;;;6.80;13.90;;;;;;5012553;28;20430;-71
2023/04/13 04:14:13;;;;;;;206.23;190.10;;;6.80;13.20;;;;;;5012675;28;20316;-72
2023/04/13 04:16:38;;;;;;;201.93;186.13;;;6.90;12.40;;;;;;5012914;28;20538;-72
2023/04/13 04:19:04;;;;;;;408.63;381.80;;;6.80;12.80;;;;;;5013671;28;20187;-72
2023/04/13 04:21:33;;;;;;;215.63;198.13;;;6.80;11.40;;;;;;5012242;28;20227;-72
2023/04/13 04:23:59;;;;;;;200.27;185.53;;;6.80;11.00;;;;;;5012619;28;20252;-72
2023/04/13 04:26:25;;;;;;;233.03;216.20;;;6.90;9.80;;;;;;5013091;28;20412;-72
2023/04/13 04:28:51;;;;;;;175.67;160.47;;;6.90;9.90;;;;;;5012954;28;20411;-71
2023/04/13 04:31:16;;;;;;;178.87;163.53;;;6.90;8.90;;;;;;5042175;23;20485;-68
2023/04/13 04:33:43;;;;;;;278.00;260.73;;;6.80;8.40;;;;;;5033718;28;20172;-68
2023/04/13 04:36:12;;;;;;;257.17;240.00;;;6.80;8.40;;;;;;5033700;28;20172;-69
2023/04/13 04:38:39;;;;;;;135.60;123.43;;;6.80;8.40;;;;;;5032290;28;20437;-69
2023/04/13 04:41:04;;;;;;;197.67;182.53;;;6.70;7.90;;;;;;5035308;28;20472;-69
2023/04/13 04:43:31;;;;;;;172.50;159.03;;;6.70;7.80;;;;;;5033279;28;20410;-69
2023/04/13 04:45:56;;;;;;;326.43;303.33;;;6.70;8.30;;;;;;5035105;28;20251;-69
2023/04/13 04:48:25;;;;;;;159.43;146.80;;;6.70;7.30;;;;;;5034956;28;20418;-69
2023/04/13 04:50:51;;;;;;;181.90;167.33;;;6.80;8.40;;;;;;5034924;28;20879;-69
2023/04/13 04:53:17;;;;;;;282.73;262.67;;;6.80;7.70;;;;;;5032977;28;20428;-69
2023/04/13 04:55:42;;;;;;;287.53;266.73;;;6.80;7.30;;;;;;5033168;28;20919;-69
2023/04/13 04:58:08;;;;;;;419.53;387.43;;;6.80;7.20;;;;;;5033065;28;20660;-69
2023/04/13 05:00:34;;;;;;;168.37;155.20;;;6.80;7.30;;;;;;5032789;28;20277;-69
2023/04/13 05:03:00;;;;;;;129.50;117.37;;;6.80;7.10;;;;;;5032684;28;20172;-69
2023/04/13 05:05:26;;;;;;;241.47;221.93;;;6.90;7.30;;;;;;5033161;28;20168;-70
2023/04/13 05:07:52;;;;;;;205.30;191.07;;;6.90;7.50;;;;;;5032845;28;20446;-69
2023/04/13 05:10:18;;;;;;;131.90;120.70;;;6.90;8.00;;;;;;5032755;28;20442;-69
2023/04/13 05:12:43;;;;;;;126.83;115.60;;;7.00;8.00;;;;;;5030893;28;20245;-69
2023/04/13 05:15:09;;;;;;;339.60;317.73;;;7.00;7.30;;;;;;5032891;28;20183;-70
2023/04/13 05:17:35;;;;;;;128.23;117.07;;;7.10;7.50;;;;;;5032929;28;20178;-69
2023/04/13 05:20:03;;;;;;;140.93;128.23;;;7.10;7.70;;;;;;5032734;28;20504;-69
2023/04/13 05:22:31;;;;;;;172.30;158.60;;;7.20;7.30;;;;;;5032528;28;20661;-69
2023/04/13 05:24:56;;;;;;;121.53;111.03;;;7.20;7.00;;;;;;5032803;28;20497;-69
2023/04/13 05:27:22;;;;;;;222.90;205.73;;;7.30;7.30;;;;;;5032731;28;20179;-69
2023/04/13 05:29:47;;;;;;;370.53;348.33;;;7.40;6.70;;;;;;5033042;28;20659;-69
2023/04/13 05:32:13;;;;;;;346.97;324.00;;;7.40;6.70;;;;;;5032588;28;20332;-69
2023/04/13 05:34:38;;;;;;;174.37;161.37;;;7.40;6.40;;;;;;5032268;28;20225;-71
2023/04/13 05:37:04;;;;;;;162.13;148.73;;;7.30;6.30;;;;;;5032932;28;20554;-69
2023/04/13 05:39:29;;;;;;;315.30;291.87;;;7.30;6.50;;;;;;5032549;28;20632;-68
2023/04/13 05:41:56;;;;;;;198.77;183.57;;;7.30;7.50;;;;;;5032123;28;20218;-68
2023/04/13 05:44:21;;;;;;;281.40;263.53;;;7.30;8.50;;;;;;5032202;28;20229;-69
2023/04/13 05:46:49;;;;;;;159.10;145.97;;;7.30;8.70;;;;;;5032765;28;20414;-69
2023/04/13 05:49:15;;;;;;;210.37;195.60;;;7.30;8.70;;;;;;5031704;28;20532;-69
2023/04/13 05:51:40;;;;;;;322.10;300.77;;;7.30;8.70;;;;;;5032405;28;20438;-69
2023/04/13 05:54:08;;;;;;;283.57;266.00;;;7.30;8.70;;;;;;5030490;28;20498;-69
2023/04/13 05:56:35;;;;;;;121.57;110.87;;;7.30;8.70;;;;;;5033298;28;20171;-69
2023/04/13 05:59:03;;;;;;;400.40;374.10;;;7.40;7.70;;;;;;5020290;28;20538;-68
2023/04/13 06:01:29;;;;;;;377.43;351.30;;;7.50;8.00;;;;;;5012420;28;20471;-68
2023/04/13 06:03:55;;;;;;;264.13;245.03;;;7.60;7.90;;;;;;5011754;28;20407;-68
2023/04/13 06:06:20;;;;;;;121.10;110.50;;;7.60;7.80;;;;;;5011832;28;20418;-68
2023/04/13 06:08:46;;;;;;;300.23;279.77;;;7.70;7.00;;;;;;5011738;28;20411;-68
2023/04/13 06:11:11;;;;;;;230.27;213.30;;;7.70;7.60;;;;;;5011527;28;20689;-68
2023/04/13 06:13:40;;;;;;;242.33;226.27;;;7.70;7.10;;;;;;5011668;28;20638;-68
2023/04/13 06:16:06;;;;;;;347.47;322.70;;;7.80;7.20;;;;;;5012856;28;20207;-68
2023/04/13 06:18:32;;;;;;;304.63;282.23;;;7.70;5.80;;;;;;5031798;28;20418;-69
2023/04/13 06:20:58;;;;;;;179.60;165.57;;;7.70;6.40;;;;;;5031380;28;20458;-69
2023/04/13 06:23:24;;;;;;;464.13;432.33;;;7.70;6.20;;;;;;5031528;28;20175;-69
2023/04/13 06:25:50;;;;;;;197.83;181.70;;;7.60;4.80;;;;;;5031612;28;20406;-69
2023/04/13 06:28:16;;;;;;;92.57;81.63;;;7.70;5.10;;;;;;5031916;28;20409;-68
2023/04/13 06:30:42;;;;;;;287.90;268.17;;;7.70;5.70;;;;;;5031641;28;20414;-68
2023/04/13 06:33:07;;;;;;;208.20;192.17;;;7.50;5.20;;;;;;5031166;28;20180;-70
2023/04/13 06:35:34;;;;;;;243.90;226.63;;;7.60;6.00;;;;;;5031751;28;20184;-68
2023/04/13 06:38:01;;;;;;;143.27;130.53;;;7.60;6.00;;;;;;5031491;28;20171;-68
2023/04/13 06:40:27;;;;;;;276.90;256.50;;;7.50;5.50;;;;;;5031326;28;20449;-69
2023/04/13 06:42:53;;;;;;;289.67;268.97;;;7.50;5.40;;;;;;5029677;28;20995;-69
2023/04/13 06:45:20;;;;;;;214.63;196.90;;;7.60;4.80;;;;;;5031456;28;20415;-71
2023/04/13 06:47:46;;;;;;;224.97;207.00;;;7.70;4.60;;;;;;5014578;28;20952;-69
2023/04/13 06:50:14;;;;;;;208.60;193.00;;;7.80;5.10;;;;;;5019575;28;20427;-69
2023/04/13 06:52:45;;;;;;;117.00;105.93;;;8.00;4.70;;;;;;5011465;28;20807;-68
2023/04/13 06:55:11;;;;;;;85.23;74.57;;;8.30;4.90;;;;;;5011658;28;20454;-68
2023/04/13 06:57:36;;;;;;;241.43;221.63;;;8.60;4.40;;;;;;5010829;28;20444;-68
2023/04/13 07:00:05;;;;;;;197.97;182.37;;;8.60;3.90;;;;;;5009845;28;20177;-68
2023/04/13 07:02:30;;;;;;;264.77;245.03;;;8.60;3.70;;;;;;5013319;28;20205;-69
2023/04/13 07:04:56;;;;;;;269.50;247.17;;;8.40;4.20;;;;;;5029861;28;20442;-69
2023/04/13 07:07:21;;;;;;;307.50;283.83;;;8.40;4.90;;;;;;5029344;28;20189;-68
2023/04/13 07:09:47;;;;;;;581.00;541.07;;;8.20;4.80;;;;;;5029730;28;20671;-70
2023/04/13 07:12:12;;;;;;;246.53;225.43;;;8.30;4.90;;;;;;5029586;28;20212;-68
2023/04/13 07:14:39;;;;;;;325.30;305.43;;;8.40;5.40;;;;;;5029225;28;20450;-67
2023/04/13 07:17:05;;;;;;;382.47;357.87;;;8.50;6.00;;;;;;5029821;28;20249;-67
2023/04/13 07:19:32;;;;;;;327.00;305.03;;;8.40;7.00;;;;;;5026606;28;20514;-68
2023/04/13 07:21:58;;;;;;;406.30;378.00;;;8.50;7.80;;;;;;5028824;28;20660;-68
2023/04/13 07:24:28;;;;;;;304.97;285.50;;;8.40;8.00;;;;;;5030287;28;20484;-68
2023/04/13 07:26:57;;;;;;;347.57;326.47;;;8.50;8.40;;;;;;5028385;28;20430;-68
2023/04/13 07:29:23;;;;;;;214.03;198.33;;;8.60;7.60;;;;;;5029761;28;20423;-70
2023/04/13 07:31:49;;;;;;;253.90;237.83;;;8.80;8.80;;;;;;5029840;28;20452;-68
2023/04/13 07:34:15;;;;;;;324.10;303.23;;;9.10;7.60;;;;;;5030163;28;20838;-68
2023/04/13 07:36:41;;;;;;;138.07;126.90;;;9.40;6.80;;;;;;5028589;28;20193;-68
2023/04/13 07:39:08;;;;;;;402.67;375.87;;;9.70;5.80;;;;;;5030551;28;20429;-68
2023/04/13 07:41:34;;;;;;;289.23;270.80;;;9.70;6.30;;;;;;5030031;28;20460;-69
2023/04/13 07:44:00;;;;;;;311.97;290.17;;;9.80;5.70;;;;;;5030090;28;20422;-68
2023/04/13 07:46:26;;;;;;;341.60;317.77;;;9.80;5.60;;;;;;5030589;28;20777;-69
2023/04/13 07:48:54;;;;;;;278.70;257.63;;;10.10;4.60;;;;;;5030219;28;20209;-68
2023/04/13 07:51:20;;;;;;;286.57;264.20;;;10.00;3.00;;;;;;5029610;28;20829;-68
2023/04/13 07:53:46;;;;;;;269.07;247.43;;;9.80;4.50;;;;;;5029631;28;20433;-68
2023/04/13 07:56:12;;;;;;;245.43;227.33;;;9.70;4.30;;;;;;5029776;28;20986;-69
2023/04/13 07:58:37;;;;;;;223.90;206.53;;;9.70;4.60;;;;;;5029518;28;20593;-68
2023/04/13 08:01:03;;;;;;;226.50;208.33;;;9.80;4.70;;;;;;5031540;28;20972;-69
2023/04/13 08:03:33;;;;;;;347.20;322.97;;;10.00;3.80;;;;;;5033294;28;20551;-69
2023/04/13 08:05:59;;;;;;;189.03;173.37;;;10.00;2.70;;;;;;5033926;28;20432;-69
2023/04/13 08:08:25;;;;;;;224.50;207.00;;;10.00;3.50;;;;;;5033635;28;20529;-69
2023/04/13 08:10:51;;;;;;;320.07;296.63;;;9.80;4.50;;;;;;5033533;28;20231;-69
2023/04/13 08:13:16;;;;;;;350.87;325.17;;;9.80;4.40;;;;;;5033088;28;20468;-69
2023/04/13 08:15:42;;;;;;;484.73;448.17;;;9.70;3.50;;;;;;5033637;28;20460;-69
2023/04/13 08:18:08;;;;;;;362.90;332.43;;;9.90;3.20;;;;;;5033332;28;20708;-68
2023/04/13 08:20:34;;;;;;;449.67;415.93;;;10.10;1.50;;;;;;5033585;28;20209;-71
2023/04/13 08:22:59;;;;;;;196.67;180.30;;;10.20;1.00;;;;;;5033048;28;20181;-68
2023/04/13 08:25:25;;;;;;;398.43;370.57;;;10.80;1.00;;;;;;5032884;28;20417;-69
2023/04/13 08:27:51;;;;;;;301.17;278.20;;;11.20;1.00;;;;;;5032971;28;20752;-69
2023/04/13 08:30:17;;;;;;;326.60;300.03;;;11.30;1.00;;;;;;5032810;28;20500;-69
2023/04/13 08:32:42;;;;;;;579.63;521.43;;;11.50;1.00;;;;;;5032511;28;20273;-68
2023/04/13 08:35:09;;;;;;;368.10;339.47;;;11.20;1.00;;;;;;5032697;28;20172;-68
2023/04/13 08:37:35;;;;;;;274.20;254.27;;;11.10;1.00;;;;;;5032745;28;20624;-68
2023/04/13 08:40:01;;;;;;;372.93;345.50;;;11.10;1.00;;;;;;5032535;28;20438;-69
2023/04/13 08:42:26;;;;;;;288.20;265.83;;;11.10;1.00;;;;;;5032252;28;20801;-69
2023/04/13 08:44:57;;;;;;;476.90;442.87;;;11.10;1.00;;;;;;5032551;28;20903;-68
2023/04/13 08:47:26;;;;;;;266.90;244.80;;;11.50;1.00;;;;;;5032571;28;20194;-68
2023/04/13 08:49:55;;;;;;;684.80;628.37;;;11.90;1.00;;;;;;5032391;28;20494;-69
2023/04/13 08:52:21;;;;;;;625.30;568.00;;;11.70;1.00;;;;;;5032063;28;20433;-69
2023/04/13 08:54:47;;;;;;;535.30;491.27;;;11.30;1.00;;;;;;5032515;28;20468;-69
2023/04/13 08:57:14;;;;;;;339.27;311.83;;;11.00;1.00;;;;;;5032499;28;20423;-68
2023/04/13 08:59:42;;;;;;;281.97;258.93;;;10.90;1.00;;;;;;5030977;28;20423;-68
2023/04/13 09:02:08;;;;;;;133.90;120.90;;;10.80;1.00;;;;;;5030204;28;20556;-68
2023/04/13 09:04:37;;;;;;;292.70;269.50;;;11.10;1.00;;;;;;5032195;28;20417;-68
2023/04/13 09:07:03;;;;;;;256.40;235.00;;;11.10;1.00;;;;;;5032010;28;20415;-68
2023/04/13 09:09:31;;;;;;;480.33;445.73;;;11.10;1.00;;;;;;5031580;28;20412;-68
2023/04/13 09:11:57;;;;;;;300.10;277.93;;;11.20;1.00;;;;;;5031834;28;20452;-68
2023/04/13 09:14:24;;;;;;;333.67;307.57;;;11.40;1.00;;;;;;5031934;28;20406;-68
2023/04/13 09:16:50;;;;;;;203.17;185.40;;;11.40;1.00;;;;;;5030731;28;20433;-68
2023/04/13 09:19:16;;;;;;;276.10;253.83;;;12.10;1.00;;;;;;5027202;28;20422;-67
2023/04/13 09:21:43;;;;;;;335.03;310.30;;;12.40;1.00;;;;;;5011587;28;20467;-68
2023/04/13 09:24:11;;;;;;;322.60;297.57;;;12.50;1.00;;;;;;5008032;28;20478;-69
2023/04/13 09:26:47;;;;;;;445.70;413.63;;;12.40;1.00;;;;;;5008695;28;20423;-68
2023/04/13 09:29:15;;;;;;;418.60;388.33;;;11.70;1.00;;;;;;5008931;28;20418;-68
2023/04/13 09:31:42;;;;;;;441.10;407.37;;;11.30;1.00;;;;;;5008019;28;20869;-68
2023/04/13 09:34:08;;;;;;;364.97;336.80;;;11.20;1.00;;;;;;5007946;28;20430;-67
2023/04/13 09:36:34;;;;;;;374.67;345.80;;;11.20;1.50;;;;;;5009641;28;20891;-67
2023/04/13 09:38:59;;;;;;;376.87;346.77;;;11.20;1.50;;;;;;5012488;28;20426;-68
2023/04/13 09:41:35;;;;;;;361.70;334.00;;;11.40;1.00;;;;;;5012591;28;20366;-69
2023/04/13 09:44:23;;;;;;;347.17;320.80;;;11.80;1.00;;;;;;5011629;28;20548;-68
2023/04/13 09:46:57;;;;;;;242.53;221.30;;;12.00;1.00;;;;;;5012298;28;20422;-68
2023/04/13 09:49:24;;;;;;;321.27;296.93;;;11.90;1.00;;;;;;5011860;28;20421;-68
2023/04/13 09:51:50;;;;;;;564.40;524.43;;;11.60;1.00;;;;;;5012276;28;20450;-68
2023/04/13 09:54:22;;;;;;;410.47;381.23;;;12.00;1.00;;;;;;5012344;28;20415;-68
2023/04/13 09:56:54;;;;;;;282.30;259.97;;;12.30;1.00;;;;;;5012664;28;20335;-68
2023/04/13 09:59:24;;;;;;;557.73;512.03;;;12.90;1.00;;;;;;5013163;28;20420;-68
2023/04/13 10:01:51;;;;;;;444.67;412.60;;;13.10;1.00;;;;;;5012125;28;20458;-68
2023/04/13 10:04:16;;;;;;;486.30;449.43;;;13.20;1.00;;;;;;5012399;28;20575;-68
2023/04/13 10:06:43;;;;;;;607.87;560.60;;;13.20;1.00;;;;;;5012265;28;20508;-68
2023/04/13 10:09:09;;;;;;;370.10;343.30;;;13.00;1.00;;;;;;5012795;28;20171;-68
2023/04/13 10:11:44;;;;;;;319.77;295.27;;;12.90;1.00;;;;;;5012890;28;20435;-68
2023/04/13 10:14:21;;;;;;;404.77;376.13;;;13.40;1.00;;;;;;5013368;28;20912;-69
2023/04/13 10:17:06;;;;;;;342.03;317.10;;;13.70;1.00;;;;;;5012948;28;20897;-68
2023/04/13 10:19:41;;;;;;;309.40;285.20;;;13.20;1.00;;;;;;5011995;28;20828;-68
2023/04/13 10:22:08;;;;;;;495.47;459.77;;;13.30;1.00;;;;;;5015854;28;20464;-68
2023/04/13 10:24:34;;;;;;;273.70;253.13;;;12.90;1.00;;;;;;5016281;28;20426;-69
2023/04/13 10:27:10;;;;;;;377.10;349.30;;;13.50;1.00;;;;;;5016233;28;20947;-68
2023/04/13 10:29:36;;;;;;;518.63;481.13;;;;;;;;;;5016235;28;20421;-68
2023/04/13 10:32:03;;;;;;;659.87;604.90;;;11.90;1.00;;;;;;5015995;28;20943;-68
2023/04/13 10:34:30;;;;;;;434.67;400.63;;;10.60;2.70;;;;;;5015292;28;20928;-67
2023/04/13 10:37:02;;;;;;;511.13;471.90;;;10.00;6.40;;;;;;5015506;28;20415;-68
2023/04/13 10:39:31;;;;;;;330.90;307.80;;;9.50;9.90;;;;;;5015130;28;20966;-68
2023/04/13 10:42:00;;;;;;;398.57;373.67;;;9.20;11.70;;;;;;5013563;28;20887;-68
2023/04/13 10:44:27;;;;;;;367.53;341.30;;;9.60;9.60;;;;;;5015349;28;20430;-68
2023/04/13 10:46:52;;;;;;;335.13;311.40;;;10.20;7.80;;;;;;5015515;28;20418;-68
2023/04/13 10:49:29;;;;;;;422.03;392.23;;;10.60;6.30;;;;;;5013727;28;20763;-67
2023/04/13 10:51:55;;;;;;;390.17;363.83;;;10.80;5.80;;;;;;5014682;28;20568;-68
2023/04/13 10:54:21;;;;;;;388.70;361.77;;;;;;;;;;5013603;28;20458;-68
2023/04/13 10:56:57;;;;;;;474.40;440.70;;;;;;;;;;5015056;28;20318;-68
2023/04/13 10:59:22;;;;;;;312.67;288.63;;;12.60;2.00;;;;;;5015058;28;20780;-68
2023/04/13 11:01:48;;;;;;;261.53;240.17;;;13.30;1.20;;;;;;5014531;28;20462;-68
2023/04/13 11:04:14;;;;;;;474.77;439.70;;;13.50;1.00;;;;;;5014979;28;20634;-68
2023/04/13 11:06:40;;;;;;;387.07;357.07;;;13.80;1.00;;;;;;5014914;28;20250;-68
2023/04/13 11:09:05;;;;;;;530.03;488.10;;;13.40;1.00;;;;;;5014854;28;20494;-68
2023/04/13 11:11:33;;;;;;;263.97;242.83;;;12.90;1.00;;;;;;5014325;28;20283;-68
2023/04/13 11:13:58;;;;;;;517.40;477.67;;;12.40;1.20;;;;;;5014457;28;20194;-68
2023/04/13 11:16:24;;;;;;;479.03;440.10;;;11.50;2.00;;;;;;5014329;28;20430;-68
2023/04/13 11:19:03;;;;;;;300.53;277.67;;;10.80;3.70;;;;;;5014203;28;20641;-68
2023/04/13 11:21:30;;;;;;;269.03;250.07;;;11.10;3.80;;;;;;5014596;28;20219;-68
2023/04/13 11:24:01;;;;;;;245.33;227.77;;;;;;;;;;5014345;28;20496;-68
2023/04/13 11:26:35;;;;;;;346.77;322.93;;;11.90;3.40;;;;;;5014333;28;20422;-68
2023/04/13 11:29:01;;;;;;;229.70;211.30;;;12.60;4.30;;;;;;5014381;28;20479;-67
2023/04/13 11:31:36;;;;;;;417.00;387.67;;;13.40;1.30;;;;;;5013390;28;20875;-68
2023/04/13 11:34:04;;;;;;;419.97;389.83;;;13.90;1.40;;;;;;5014148;28;20423;-68
2023/04/13 11:36:31;;;;;;;354.83;328.07;;;13.80;1.00;;;;;;5014382;28;20837;-68
2023/04/13 11:38:58;;;;;;;268.50;247.10;;;14.30;1.00;;;;;;5013005;28;20526;-69
2023/04/13 11:41:27;;;;;;;499.93;462.80;;;14.60;1.00;;;;;;5014713;28;20469;-71
2023/04/13 11:43:53;;;;;;;408.90;378.03;;;14.90;1.00;;;;;;5014795;28;20419;-70
2023/04/13 11:46:25;;;;;;;174.07;159.40;;;15.00;1.00;;;;;;5014000;28;20444;-70
2023/04/13 11:48:51;;;;;;;401.13;369.73;;;14.80;1.00;;;;;;5014840;28;20473;-70
2023/04/13 11:51:18;;;;;;;477.73;441.63;;;14.30;1.00;;;;;;5015452;28;20434;-70
2023/04/13 11:53:45;;;;;;;261.67;241.27;;;14.20;1.00;;;;;;5013922;28;20918;-69
2023/04/13 11:56:11;;;;;;;559.37;518.57;;;13.60;1.00;;;;;;5015925;28;20506;-71
2023/04/13 11:58:38;;;;;;;396.87;368.17;;;13.30;1.00;;;;;;5022756;28;20510;-69
2023/04/13 12:01:08;;;;;;;449.70;415.80;;;12.80;1.00;;;;;;5033613;28;20830;-69
2023/04/13 12:03:35;;;;;;;499.23;462.83;;;12.80;1.00;;;;;;5033844;28;20794;-68
2023/04/13 12:06:02;;;;;;;316.53;292.80;;;12.50;1.00;;;;;;5034959;28;20521;-69
2023/04/13 12:08:28;;;;;;;457.77;423.53;;;12.60;1.00;;;;;;5034905;28;20912;-69
2023/04/13 12:11:02;;;;;;;453.20;420.17;;;12.70;1.00;;;;;;5034228;28;20411;-69
2023/04/13 12:13:38;;;;;;;603.07;558.17;;;13.20;1.00;;;;;;5033892;28;20454;-69
2023/04/13 12:16:04;;;;;;;444.80;412.03;;;13.30;1.00;;;;;;5019467;28;20434;-69
2023/04/13 12:18:30;;;;;;;290.30;267.03;;;13.50;1.00;;;;;;5033788;28;20418;-69
2023/04/13 12:20:59;;;;;;;400.80;369.50;;;13.70;1.00;;;;;;5034215;28;20215;-69